createdAt,value
2022-10-08T00:00:53.292Z,100925.91
2022-10-08T00:03:21.527Z,100928.34
2022-10-08T00:05:59.679Z,100935.59
2022-10-08T00:08:27.923Z,100923.16
2022-10-08T00:11:00.625Z,100928.84
2022-10-08T00:13:29.175Z,100926.50
2022-10-08T00:15:56.900Z,100930.41
2022-10-08T00:18:23.489Z,100934.88
2022-10-08T00:20:50.172Z,100930.28
2022-10-08T00:23:17.045Z,100934.84
2022-10-08T00:25:44.825Z,100936.94
2022-10-08T00:28:13.585Z,100932.91
2022-10-08T00:30:41.485Z,100939.13
2022-10-08T00:33:08.845Z,100930.97
2022-10-08T00:35:43.017Z,100933.06
2022-10-08T00:38:09.944Z,100927.16
2022-10-08T00:40:44.357Z,100930.63
2022-10-08T00:43:16.367Z,100940.13
2022-10-08T00:45:46.492Z,100937.63
2022-10-08T00:48:20.935Z,100933.84
2022-10-08T00:50:48.051Z,100937.09
2022-10-08T00:53:14.904Z,100939.72
2022-10-08T00:55:43.925Z,100931.00
2022-10-08T00:58:19.486Z,100939.13
2022-10-08T01:00:48.206Z,100932.41
2022-10-08T01:03:15.219Z,100929.69
2022-10-08T01:06:16.863Z,100926.72
2022-10-08T01:08:54.594Z,100930.28
2022-10-08T01:11:47.565Z,100929.25
2022-10-08T01:14:23.098Z,100928.19
2022-10-08T01:17:08.265Z,100926.34
2022-10-08T01:20:04.808Z,100932.88
2022-10-08T01:22:51.783Z,100934.22
2022-10-08T01:25:34.061Z,100933.41
2022-10-08T01:28:12.935Z,100932.03
2022-10-08T01:30:45.415Z,100925.84
2022-10-08T01:33:17.889Z,100931.25
2022-10-08T01:35:50.761Z,100934.00
2022-10-08T01:38:20.658Z,100932.38
2022-10-08T01:40:48.314Z,100937.00
2022-10-08T01:43:19.020Z,100934.53
2022-10-08T01:45:52.041Z,100940.47
2022-10-08T01:48:25.681Z,100944.25
2022-10-08T01:50:55.334Z,100949.94
2022-10-08T01:53:25.828Z,100949.09
2022-10-08T01:55:54.887Z,100948.53
2022-10-08T01:58:48.370Z,100945.28
2022-10-08T02:01:27.730Z,100937.56
2022-10-08T02:04:13.239Z,100935.22
2022-10-08T02:06:45.352Z,100930.50
2022-10-08T02:09:11.916Z,100928.69
2022-10-08T02:11:38.467Z,100934.66
2022-10-08T02:14:06.128Z,100936.81
2022-10-08T02:16:34.366Z,100935.66
2022-10-08T02:19:11.747Z,100931.59
2022-10-08T02:21:41.062Z,100935.38
2022-10-08T02:24:16.928Z,100934.81
2022-10-08T02:26:49.303Z,100933.53
2022-10-08T02:29:25.757Z,100935.44
2022-10-08T02:31:58.172Z,100932.22
2022-10-08T02:34:48.061Z,100931.66
2022-10-08T02:37:21.836Z,100931.69
2022-10-08T02:39:56.832Z,100937.09
2022-10-08T02:42:25.639Z,100942.56
2022-10-08T02:44:58.820Z,100935.59
2022-10-08T02:47:29.192Z,100938.06
2022-10-08T02:50:03.658Z,100953.47
2022-10-08T02:52:36.951Z,100951.03
2022-10-08T02:55:11.279Z,100954.03
2022-10-08T02:57:45.800Z,100947.00
2022-10-08T03:00:13.053Z,100955.94
2022-10-08T03:02:47.242Z,100954.91
2022-10-08T03:05:19.000Z,100954.91
2022-10-08T03:07:47.804Z,100950.59
2022-10-08T03:10:14.455Z,100950.38
2022-10-08T03:12:41.149Z,100948.75
2022-10-08T03:15:11.325Z,100971.41
2022-10-08T03:17:42.028Z,100970.84
2022-10-08T03:20:11.412Z,100973.53
2022-10-08T03:22:38.688Z,100973.84
2022-10-08T03:25:05.693Z,100967.34
2022-10-08T03:27:32.336Z,100976.25
2022-10-08T03:29:58.845Z,100978.97
2022-10-08T03:32:26.506Z,100986.28
2022-10-08T03:34:53.894Z,100987.38
2022-10-08T03:37:20.859Z,100991.47
2022-10-08T03:39:47.445Z,100987.16
2022-10-08T03:42:14.080Z,100986.91
2022-10-08T03:44:40.806Z,100985.03
2022-10-08T03:47:07.401Z,100994.75
2022-10-08T03:49:34.027Z,100984.22
2022-10-08T03:52:00.747Z,100990.97
2022-10-08T03:54:27.357Z,100987.47
2022-10-08T03:56:54.077Z,100988.28
2022-10-08T03:59:20.669Z,100992.63
2022-10-08T04:01:47.288Z,100995.31
2022-10-08T04:04:13.904Z,101006.66
2022-10-08T04:06:40.476Z,101007.75
2022-10-08T04:09:07.060Z,101018.53
2022-10-08T04:11:33.610Z,101015.84
2022-10-08T04:14:00.641Z,101022.84
2022-10-08T04:16:27.299Z,101025.53
2022-10-08T04:18:53.863Z,101023.91
2022-10-08T04:21:20.857Z,101024.47
2022-10-08T04:23:49.654Z,101021.47
2022-10-08T04:26:16.795Z,101020.69
2022-10-08T04:28:44.855Z,101019.31
2022-10-08T04:31:17.356Z,101024.19
2022-10-08T04:33:45.280Z,101024.47
2022-10-08T04:36:14.620Z,101018.50
2022-10-08T04:38:43.253Z,101016.34
2022-10-08T04:41:11.448Z,101016.34
2022-10-08T04:43:39.549Z,101011.50
2022-10-08T04:46:08.880Z,101027.94
2022-10-08T04:48:35.649Z,101021.47
2022-10-08T04:51:09.387Z,101026.06
2022-10-08T04:53:37.542Z,101032.56
2022-10-08T04:56:17.091Z,101027.69
2022-10-08T04:58:43.995Z,101029.03
2022-10-08T05:01:13.173Z,101038.22
2022-10-08T05:03:42.653Z,101037.69
2022-10-08T05:06:09.953Z,101039.56
2022-10-08T05:08:37.301Z,101034.44
2022-10-08T05:11:04.427Z,101034.97
2022-10-08T05:13:31.013Z,101039.56
2022-10-08T05:16:09.898Z,101041.72
2022-10-08T05:18:37.576Z,101043.59
2022-10-08T05:21:10.084Z,101052.50
2022-10-08T05:23:37.382Z,101045.22
2022-10-08T05:26:46.480Z,101047.66
2022-10-08T05:29:14.810Z,101054.63
2022-10-08T05:31:41.369Z,101052.44
2022-10-08T05:34:08.005Z,101054.59
2022-10-08T05:36:35.136Z,101054.59
2022-10-08T05:39:04.662Z,101057.84
2022-10-08T05:41:34.535Z,101059.47
2022-10-08T05:44:04.447Z,101064.88
2022-10-08T05:46:33.701Z,101068.63
2022-10-08T05:49:03.050Z,101070.78
2022-10-08T05:51:30.206Z,101074.56
2022-10-08T05:53:59.306Z,101076.16
2022-10-08T05:56:27.344Z,101072.41
2022-10-08T05:58:54.776Z,101075.66
2022-10-08T06:01:24.366Z,101075.41
2022-10-08T06:03:55.382Z,101084.03
2022-10-08T06:06:23.053Z,101088.09
2022-10-08T06:08:58.671Z,101095.13
2022-10-08T06:11:26.282Z,101091.88
2022-10-08T06:13:54.318Z,101091.88
2022-10-08T06:16:22.112Z,101095.94
2022-10-08T06:18:48.807Z,101097.81
2022-10-08T06:21:21.689Z,101102.13
2022-10-08T06:23:50.993Z,101107.53
2022-10-08T06:26:18.896Z,101105.09
2022-10-08T06:28:46.065Z,101105.91
2022-10-08T06:31:12.980Z,101115.88
2022-10-08T06:33:39.829Z,101116.16
2022-10-08T06:36:21.153Z,101127.50
2022-10-08T06:38:57.313Z,101115.06
2022-10-08T06:41:24.802Z,101113.47
2022-10-08T06:43:51.421Z,101118.84
2022-10-08T06:46:18.874Z,101120.50
2022-10-08T06:48:46.442Z,101120.78
2022-10-08T06:51:16.025Z,101125.63
2022-10-08T06:53:43.488Z,101133.44
2022-10-08T06:56:14.433Z,101133.97
2022-10-08T06:58:43.686Z,101141.50
2022-10-08T07:01:21.867Z,101148.53
2022-10-08T07:03:53.311Z,101151.00
2022-10-08T07:06:20.201Z,101144.25
2022-10-08T07:08:46.932Z,101156.13
2022-10-08T07:11:16.367Z,101149.13
2022-10-08T07:13:43.558Z,101152.91
2022-10-08T07:16:20.735Z,101152.91
2022-10-08T07:18:52.117Z,101159.94
2022-10-08T07:21:21.040Z,101166.41
2022-10-08T07:23:47.822Z,101162.06
2022-10-08T07:26:20.203Z,101163.44
2022-10-08T07:28:55.711Z,101163.44
2022-10-08T07:31:28.230Z,101166.38
2022-10-08T07:33:56.206Z,101172.88
2022-10-08T07:36:24.223Z,101173.94
2022-10-08T07:38:55.532Z,101173.94
2022-10-08T07:41:22.628Z,101171.78
2022-10-08T07:43:53.680Z,101179.34
2022-10-08T07:46:20.932Z,101188.53
2022-10-08T07:48:47.885Z,101184.22
2022-10-08T07:51:19.487Z,101185.84
2022-10-08T07:53:46.347Z,101188.00
2022-10-08T07:56:14.985Z,101188.03
2022-10-08T07:58:42.299Z,101179.94
2022-10-08T08:01:12.779Z,101190.72
2022-10-08T08:03:39.537Z,101186.16
2022-10-08T08:06:10.473Z,101185.25
2022-10-08T08:08:38.492Z,101194.16
2022-10-08T08:11:06.805Z,101193.28
2022-10-08T08:13:37.309Z,101194.44
2022-10-08T08:16:07.833Z,101193.81
2022-10-08T08:18:40.034Z,101199.19
2022-10-08T08:21:09.785Z,101203.06
2022-10-08T08:23:38.953Z,101208.72
2022-10-08T08:26:33.044Z,101209.00
2022-10-08T08:29:03.858Z,101208.03
2022-10-08T08:31:32.675Z,101209.56
2022-10-08T08:34:02.319Z,101215.72
2022-10-08T08:36:37.280Z,101218.25
2022-10-08T08:39:04.982Z,101214.03
2022-10-08T08:41:47.482Z,101214.66
2022-10-08T08:44:16.885Z,101217.94
2022-10-08T08:47:02.215Z,101227.16
2022-10-08T08:49:35.040Z,101225.53
2022-10-08T08:52:05.228Z,101227.16
2022-10-08T08:54:38.064Z,101230.38
2022-10-08T08:57:36.308Z,101230.38
2022-10-08T09:00:28.124Z,101227.16
2022-10-08T09:03:05.298Z,101220.16
2022-10-08T09:05:39.450Z,101233.13
2022-10-08T09:08:33.800Z,101230.38
2022-10-08T09:11:02.996Z,101229.84
2022-10-08T09:13:47.524Z,101225.50
2022-10-08T09:16:15.229Z,101228.72
2022-10-08T09:18:51.967Z,101236.53
2022-10-08T09:21:19.747Z,101230.84
2022-10-08T09:23:47.609Z,101232.97
2022-10-08T09:26:17.127Z,101230.75
2022-10-08T09:28:44.665Z,101230.75
2022-10-08T09:31:22.525Z,101235.69
2022-10-08T09:34:10.722Z,101231.97
2022-10-08T09:36:44.185Z,101235.88
2022-10-08T09:39:27.196Z,101235.88
2022-10-08T09:42:15.364Z,101244.25
2022-10-08T09:44:45.035Z,101232.75
2022-10-08T09:47:14.695Z,101233.84
2022-10-08T09:49:41.315Z,101233.59
2022-10-08T09:52:17.533Z,101236.41
2022-10-08T09:54:48.994Z,101237.47
2022-10-08T09:57:21.429Z,101235.19
2022-10-08T09:59:52.951Z,101239.84
2022-10-08T10:02:26.646Z,101235.50
2022-10-08T10:04:55.112Z,101236.63
2022-10-08T10:07:23.302Z,101246.75
2022-10-08T10:09:55.980Z,101241.94
2022-10-08T10:12:33.118Z,101229.66
2022-10-08T10:15:04.617Z,101238.22
2022-10-08T10:17:44.693Z,101239.66
2022-10-08T10:20:17.993Z,101239.72
2022-10-08T10:22:55.014Z,101239.41
2022-10-08T10:25:47.884Z,101239.31
2022-10-08T10:28:34.677Z,101243.19
2022-10-08T10:31:10.701Z,101245.25
2022-10-08T10:34:13.170Z,101240.72
2022-10-08T10:36:45.689Z,101242.66
2022-10-08T10:39:49.564Z,101247.66
2022-10-08T10:42:43.743Z,101243.16
2022-10-08T10:45:22.942Z,101255.53
2022-10-08T10:47:53.390Z,101247.06
2022-10-08T10:50:37.278Z,101251.63
2022-10-08T10:53:25.163Z,101257.69
2022-10-08T10:56:12.723Z,101260.91
2022-10-08T10:58:52.873Z,101260.19
2022-10-08T11:01:45.349Z,101259.94
2022-10-08T11:04:41.101Z,101254.00
2022-10-08T11:07:38.988Z,101264.22
2022-10-08T11:10:43.157Z,101259.19
2022-10-08T11:13:36.523Z,101260.56
2022-10-08T11:16:25.102Z,101258.88
2022-10-08T11:18:54.872Z,101259.22
2022-10-08T11:22:12.594Z,101264.00
2022-10-08T11:24:47.829Z,101268.00
2022-10-08T11:27:47.885Z,101271.16
2022-10-08T11:30:22.845Z,101269.00
2022-10-08T11:32:53.047Z,101280.16
2022-10-08T11:35:27.149Z,101281.91
2022-10-08T11:37:58.459Z,101281.72
2022-10-08T11:40:28.084Z,101280.97
2022-10-08T11:43:10.711Z,101282.22
2022-10-08T11:45:40.159Z,101276.31
2022-10-08T11:48:35.039Z,101280.72
2022-10-08T11:51:20.033Z,101273.69
2022-10-08T11:54:03.097Z,101289.38
2022-10-08T11:56:30.880Z,101279.69
2022-10-08T11:59:02.368Z,101288.47
2022-10-08T12:01:28.980Z,101287.09
2022-10-08T12:04:05.043Z,101287.81
2022-10-08T12:06:36.783Z,101288.94
2022-10-08T12:09:06.140Z,101290.19
2022-10-08T12:11:32.639Z,101291.41
2022-10-08T12:14:19.126Z,101294.78
2022-10-08T12:16:49.168Z,101296.75
2022-10-08T12:19:34.163Z,101289.25
2022-10-08T12:22:18.582Z,101295.97
2022-10-08T12:24:50.017Z,101300.66
2022-10-08T12:27:17.273Z,101301.75
2022-10-08T12:30:08.251Z,101294.78
2022-10-08T12:32:43.901Z,101289.84
2022-10-08T12:35:30.124Z,101286.50
2022-10-08T12:38:05.632Z,101291.69
2022-10-08T12:40:35.245Z,101292.09
2022-10-08T12:43:34.791Z,101293.09
2022-10-08T12:46:32.309Z,101292.22
2022-10-08T12:49:22.185Z,101293.28
2022-10-08T12:52:11.759Z,101286.81
2022-10-08T12:54:45.505Z,101285.31
2022-10-08T12:57:17.632Z,101287.94
2022-10-08T12:59:46.457Z,101278.06
2022-10-08T13:02:40.523Z,101279.69
2022-10-08T13:05:27.448Z,101285.50
2022-10-08T13:07:54.380Z,101282.38
2022-10-08T13:10:28.256Z,101279.03
2022-10-08T13:13:05.872Z,101282.41
2022-10-08T13:15:34.472Z,101284.72
2022-10-08T13:18:13.541Z,101283.59
2022-10-08T13:20:55.579Z,101279.00
2022-10-08T13:23:45.579Z,101281.91
2022-10-08T13:26:42.168Z,101287.66
2022-10-08T13:29:23.750Z,101280.41
2022-10-08T13:31:59.550Z,101279.44
2022-10-08T13:34:37.740Z,101283.47
2022-10-08T13:37:25.794Z,101271.56
2022-10-08T13:40:10.715Z,101293.81
2022-10-08T13:42:49.481Z,101292.81
2022-10-08T13:45:19.547Z,101290.97
2022-10-08T13:47:46.639Z,101300.19
2022-10-08T13:50:13.843Z,101299.09
2022-10-08T13:52:53.589Z,101291.78
2022-10-08T13:55:23.350Z,101292.94
2022-10-08T13:57:50.403Z,101289.56
2022-10-08T14:00:17.859Z,101291.44
2022-10-08T14:02:44.524Z,101292.53
2022-10-08T14:05:11.723Z,101290.06
2022-10-08T14:07:39.004Z,101288.19
2022-10-08T14:10:06.488Z,101287.25
2022-10-08T14:12:35.036Z,101291.56
2022-10-08T14:15:04.896Z,101288.13
2022-10-08T14:17:32.624Z,101290.66
2022-10-08T14:19:59.262Z,101277.13
2022-10-08T14:22:25.850Z,101287.84
2022-10-08T14:24:52.692Z,101286.34
2022-10-08T14:27:19.330Z,101291.75
2022-10-08T14:29:46.093Z,101295.28
2022-10-08T14:32:12.811Z,101295.91
2022-10-08T14:34:39.473Z,101291.66
2022-10-08T14:37:06.756Z,101294.94
2022-10-08T14:39:33.614Z,101292.84
2022-10-08T14:42:00.298Z,101285.44
2022-10-08T14:44:26.920Z,101280.03
2022-10-08T14:46:53.509Z,101284.72
2022-10-08T14:49:21.183Z,101283.41
2022-10-08T14:51:48.279Z,101287.06
2022-10-08T14:54:14.949Z,101287.00
2022-10-08T14:56:42.734Z,101286.69
2022-10-08T14:59:12.762Z,101287.06
2022-10-08T15:01:39.869Z,101278.78
2022-10-08T15:04:07.539Z,101285.97
2022-10-08T15:06:34.296Z,101281.84
2022-10-08T15:09:00.896Z,101275.75
2022-10-08T15:11:27.575Z,101279.69
2022-10-08T15:13:55.621Z,101275.41
2022-10-08T15:16:22.804Z,101276.13
2022-10-08T15:18:49.413Z,101277.00
2022-10-08T15:21:16.175Z,101277.88
2022-10-08T15:23:42.943Z,101278.75
2022-10-08T15:26:14.840Z,101275.00
2022-10-08T15:28:43.004Z,101272.56
2022-10-08T15:31:20.539Z,101271.00
2022-10-08T15:33:49.930Z,101268.09
2022-10-08T15:36:24.002Z,101264.59
2022-10-08T15:38:59.405Z,101268.97
2022-10-08T15:41:27.624Z,101273.44
2022-10-08T15:43:54.837Z,101278.34
2022-10-08T15:46:22.777Z,101274.88
2022-10-08T15:48:54.342Z,101280.63
2022-10-08T15:51:22.369Z,101280.72
2022-10-08T15:53:49.173Z,101281.84
2022-10-08T15:56:16.152Z,101279.16
2022-10-08T15:58:50.945Z,101286.28
2022-10-08T16:01:21.425Z,101287.97
2022-10-08T16:03:50.031Z,101294.50
2022-10-08T16:06:19.060Z,101288.03
2022-10-08T16:08:46.101Z,101292.38
2022-10-08T16:11:42.158Z,101290.31
2022-10-08T16:14:12.452Z,101296.56
2022-10-08T16:16:39.979Z,101296.88
2022-10-08T16:19:09.180Z,101305.00
2022-10-08T16:21:36.331Z,101311.00
2022-10-08T16:24:03.216Z,101302.91
2022-10-08T16:26:31.813Z,101312.16
2022-10-08T16:29:00.681Z,101308.09
2022-10-08T16:31:30.660Z,101320.28
2022-10-08T16:33:59.798Z,101321.91
2022-10-08T16:36:28.020Z,101323.00
2022-10-08T16:38:55.206Z,101318.69
2022-10-08T16:41:30.763Z,101328.44
2022-10-08T16:43:59.683Z,101321.41
2022-10-08T16:46:30.056Z,101330.09
2022-10-08T16:49:12.346Z,101333.31
2022-10-08T16:51:39.476Z,101333.91
2022-10-08T16:54:08.333Z,101349.06
2022-10-08T16:56:37.868Z,101350.38
2022-10-08T16:59:05.624Z,101352.31
2022-10-08T17:01:33.875Z,101367.44
2022-10-08T17:04:00.576Z,101364.19
2022-10-08T17:06:28.983Z,101376.09
2022-10-08T17:08:55.988Z,101372.31
2022-10-08T17:11:22.772Z,101376.63
2022-10-08T17:13:55.681Z,101385.28
2022-10-08T17:16:24.010Z,101385.28
2022-10-08T17:18:52.512Z,101387.44
2022-10-08T17:21:19.652Z,101393.66
2022-10-08T17:23:46.496Z,101393.34
2022-10-08T17:26:16.223Z,101407.13
2022-10-08T17:28:44.185Z,101411.66
2022-10-08T17:31:17.025Z,101406.78
2022-10-08T17:33:43.814Z,101403.00
2022-10-08T17:36:15.642Z,101418.69
2022-10-08T17:38:44.540Z,101412.72
2022-10-08T17:41:16.539Z,101422.19
2022-10-08T17:43:44.166Z,101418.69
2022-10-08T17:46:19.093Z,101425.44
2022-10-08T17:48:46.535Z,101434.31
2022-10-08T17:51:15.976Z,101432.16
2022-10-08T17:53:43.239Z,101434.84
2022-10-08T17:56:12.875Z,101439.19
2022-10-08T17:58:39.664Z,101444.06
2022-10-08T18:01:13.522Z,101440.78
2022-10-08T18:03:41.876Z,101459.66
2022-10-08T18:06:09.657Z,101450.72
2022-10-08T18:08:37.354Z,101454.75
2022-10-08T18:11:06.528Z,101459.59
2022-10-08T18:13:34.366Z,101469.84
2022-10-08T18:16:08.375Z,101465.25
2022-10-08T18:18:35.479Z,101473.59
2022-10-08T18:21:03.359Z,101468.75
2022-10-08T18:23:31.749Z,101476.06
2022-10-08T18:26:17.673Z,101474.16
2022-10-08T18:28:45.743Z,101471.69
2022-10-08T18:31:14.267Z,101474.66
2022-10-08T18:33:43.422Z,101468.97
2022-10-08T18:36:22.992Z,101482.72
2022-10-08T18:38:57.782Z,101488.13
2022-10-08T18:41:27.382Z,101490.75
2022-10-08T18:43:54.458Z,101486.44
2022-10-08T18:46:22.757Z,101489.09
2022-10-08T18:48:49.633Z,101492.34
2022-10-08T18:51:22.362Z,101497.44
2022-10-08T18:53:50.393Z,101497.16
2022-10-08T18:56:25.317Z,101500.94
2022-10-08T18:58:57.587Z,101509.56
2022-10-08T19:01:30.342Z,101504.66
2022-10-08T19:03:59.075Z,101509.22
2022-10-08T19:06:29.941Z,101514.06
2022-10-08T19:08:58.460Z,101514.31
2022-10-08T19:11:33.067Z,101509.97
2022-10-08T19:14:01.130Z,101512.38
2022-10-08T19:16:28.509Z,101522.88
2022-10-08T19:18:58.045Z,101536.22
2022-10-08T19:21:26.245Z,101535.09
2022-10-08T19:23:53.241Z,101543.09
2022-10-08T19:26:20.454Z,101530.91
2022-10-08T19:28:49.404Z,101536.00
2022-10-08T19:31:17.097Z,101544.56
2022-10-08T19:33:51.480Z,101549.72
2022-10-08T19:36:20.289Z,101557.25
2022-10-08T19:38:55.073Z,101561.81
2022-10-08T19:41:23.531Z,101561.50
2022-10-08T19:43:52.120Z,101567.72
2022-10-08T19:46:19.482Z,101576.63
2022-10-08T19:48:51.579Z,101579.00
2022-10-08T19:51:19.468Z,101583.78
2022-10-08T19:53:46.241Z,101586.72
2022-10-08T19:56:13.819Z,101589.66
2022-10-08T19:58:46.252Z,101590.34
2022-10-08T20:01:18.192Z,101596.94
2022-10-08T20:03:45.262Z,101597.88
2022-10-08T20:06:23.171Z,101605.81
2022-10-08T20:08:53.570Z,101603.44
2022-10-08T20:11:21.167Z,101604.81
2022-10-08T20:13:53.842Z,101601.38
2022-10-08T20:16:28.335Z,101595.78
2022-10-08T20:19:00.966Z,101599.06
2022-10-08T20:21:29.455Z,101606.56
2022-10-08T20:23:56.081Z,101608.69
2022-10-08T20:26:28.388Z,101607.06
2022-10-08T20:29:05.021Z,101604.38
2022-10-08T20:31:39.443Z,101611.84
2022-10-08T20:34:18.411Z,101607.75
2022-10-08T20:36:46.604Z,101611.69
2022-10-08T20:39:15.198Z,101614.31
2022-10-08T20:41:42.512Z,101617.22
2022-10-08T20:44:09.118Z,101615.63
2022-10-08T20:46:36.753Z,101620.19
2022-10-08T20:49:04.032Z,101616.94
2022-10-08T20:51:31.723Z,101623.13
2022-10-08T20:54:04.460Z,101617.41
2022-10-08T20:56:37.059Z,101628.69
2022-10-08T20:59:04.485Z,101623.75
2022-10-08T21:01:33.954Z,101630.69
2022-10-08T21:04:00.735Z,101629.53
2022-10-08T21:06:36.026Z,101635.44
2022-10-08T21:09:02.791Z,101639.66
2022-10-08T21:11:30.331Z,101634.28
2022-10-08T21:13:59.382Z,101634.78
2022-10-08T21:16:28.695Z,101640.06
2022-10-08T21:18:57.698Z,101642.19
2022-10-08T21:21:25.718Z,101643.84
2022-10-08T21:23:52.983Z,101641.13
2022-10-08T21:26:25.116Z,101640.63
2022-10-08T21:28:54.982Z,101646.59
2022-10-08T21:31:22.044Z,101643.91
2022-10-08T21:33:50.773Z,101653.63
2022-10-08T21:36:22.806Z,101655.75
2022-10-08T21:38:49.463Z,101652.22
2022-10-08T21:41:17.504Z,101654.09
2022-10-08T21:43:52.653Z,101653.06
2022-10-08T21:46:24.806Z,101647.91
2022-10-08T21:48:56.519Z,101652.72
2022-10-08T21:51:24.564Z,101656.72
2022-10-08T21:53:57.341Z,101663.72
2022-10-08T21:56:26.864Z,101646.41
2022-10-08T21:58:55.410Z,101656.53
2022-10-08T22:01:28.215Z,101655.97
2022-10-08T22:04:02.763Z,101655.47
2022-10-08T22:06:31.205Z,101664.09
2022-10-08T22:08:58.361Z,101660.13
2022-10-08T22:11:25.378Z,101658.50
2022-10-08T22:13:52.516Z,101657.13
2022-10-08T22:16:21.499Z,101654.88
2022-10-08T22:18:48.803Z,101661.56
2022-10-08T22:21:20.908Z,101662.38
2022-10-08T22:23:48.779Z,101653.50
2022-10-08T22:26:19.433Z,101653.75
2022-10-08T22:28:46.460Z,101658.56
2022-10-08T22:31:15.285Z,101661.00
2022-10-08T22:33:41.897Z,101654.25
2022-10-08T22:36:13.220Z,101648.75
2022-10-08T22:38:41.336Z,101648.69
2022-10-08T22:41:11.811Z,101653.47
2022-10-08T22:43:39.761Z,101652.91
2022-10-08T22:46:12.161Z,101652.09
2022-10-08T22:48:39.784Z,101645.34
2022-10-08T22:51:11.547Z,101648.03
2022-10-08T22:53:38.847Z,101653.88
2022-10-08T22:56:07.842Z,101648.16
2022-10-08T22:58:35.418Z,101647.25
2022-10-08T23:01:07.288Z,101643.66
2022-10-08T23:03:34.501Z,101646.81
2022-10-08T23:06:16.321Z,101649.16
2022-10-08T23:08:44.424Z,101645.78
2022-10-08T23:11:11.566Z,101646.28
2022-10-08T23:13:38.480Z,101648.97
2022-10-08T23:16:10.519Z,101647.91
2022-10-08T23:18:39.661Z,101640.91
2022-10-08T23:21:09.066Z,101645.22
2022-10-08T23:23:36.346Z,101636.34
2022-10-08T23:26:06.731Z,101632.84
2022-10-08T23:28:35.206Z,101626.88
2022-10-08T23:31:14.423Z,101624.13
2022-10-08T23:33:43.698Z,101632.06
2022-10-08T23:36:12.530Z,101628.22
2022-10-08T23:38:39.135Z,101626.81
2022-10-08T23:41:07.649Z,101621.09
2022-10-08T23:43:36.145Z,101630.22
2022-10-08T23:46:03.421Z,101630.69
2022-10-08T23:48:30.010Z,101636.97
2022-10-08T23:50:57.065Z,101631.03
2022-10-08T23:53:23.901Z,101635.22
2022-10-08T23:55:50.963Z,101633.38
2022-10-08T23:58:17.980Z,101633.25
